sensor_id;sensor_type;location;lat;lon;timestamp;temperature;humidity
30889;DHT22;51092;50.874;7.024;2024-02-23T00:00:06;6.60;97.00
30889;DHT22;51092;50.874;7.024;2024-02-23T00:01:07;6.60;96.90
30889;DHT22;51092;50.874;7.024;2024-02-23T00:02:08;6.70;96.50
30889;DHT22;51092;50.874;7.024;2024-02-23T00:03:10;6.60;96.50
30889;DHT22;51092;50.874;7.024;2024-02-23T00:04:14;6.70;97.00
30889;DHT22;51092;50.874;7.024;2024-02-23T00:05:15;6.60;96.20
30889;DHT22;51092;50.874;7.024;2024-02-23T00:06:18;6.60;95.80
30889;DHT22;51092;50.874;7.024;2024-02-23T00:07:19;6.60;96.20
30889;DHT22;51092;50.874;7.024;2024-02-23T00:08:22;6.60;96.10
30889;DHT22;51092;50.874;7.024;2024-02-23T00:09:23;6.60;96.20
30889;DHT22;51092;50.874;7.024;2024-02-23T00:10:28;6.60;96.10
30889;DHT22;51092;50.874;7.024;2024-02-23T00:11:29;6.60;95.90
30889;DHT22;51092;50.874;7.024;2024-02-23T00:12:31;6.70;95.20
30889;DHT22;51092;50.874;7.024;2024-02-23T00:13:32;6.60;95.40
30889;DHT22;51092;50.874;7.024;2024-02-23T00:14:34;6.60;95.20
30889;DHT22;51092;50.874;7.024;2024-02-23T00:15:37;6.60;95.00
30889;DHT22;51092;50.874;7.024;2024-02-23T00:16:40;6.70;95.00
30889;DHT22;51092;50.874;7.024;2024-02-23T00:17:41;6.60;95.30
30889;DHT22;51092;50.874;7.024;2024-02-23T00:18:44;6.60;95.30
30889;DHT22;51092;50.874;7.024;2024-02-23T00:19:47;6.50;95.20
30889;DHT22;51092;50.874;7.024;2024-02-23T00:20:50;6.60;95.10
30889;DHT22;51092;50.874;7.024;2024-02-23T00:21:52;6.60;95.10
30889;DHT22;51092;50.874;7.024;2024-02-23T00:22:54;6.60;95.60
30889;DHT22;51092;50.874;7.024;2024-02-23T00:23:56;6.60;95.50
30889;DHT22;51092;50.874;7.024;2024-02-23T00:24:58;6.50;95.60
30889;DHT22;51092;50.874;7.024;2024-02-23T00:26:00;6.50;95.60
30889;DHT22;51092;50.874;7.024;2024-02-23T00:27:03;6.50;95.80
30889;DHT22;51092;50.874;7.024;2024-02-23T00:28:05;6.50;96.00
30889;DHT22;51092;50.874;7.024;2024-02-23T00:29:08;6.50;95.60
30889;DHT22;51092;50.874;7.024;2024-02-23T00:30:11;6.50;95.70
30889;DHT22;51092;50.874;7.024;2024-02-23T00:31:13;6.60;95.30
30889;DHT22;51092;50.874;7.024;2024-02-23T00:32:15;6.60;95.80
30889;DHT22;51092;50.874;7.024;2024-02-23T00:33:24;6.50;95.60
30889;DHT22;51092;50.874;7.024;2024-02-23T00:34:28;6.50;95.30
30889;DHT22;51092;50.874;7.024;2024-02-23T00:35:34;6.50;95.20
30889;DHT22;51092;50.874;7.024;2024-02-23T00:36:35;6.50;95.20
30889;DHT22;51092;50.874;7.024;2024-02-23T00:37:38;6.50;95.30
30889;DHT22;51092;50.874;7.024;2024-02-23T00:38:38;6.50;94.90
30889;DHT22;51092;50.874;7.024;2024-02-23T00:39:40;6.50;94.80
30889;DHT22;51092;50.874;7.024;2024-02-23T00:40:44;6.50;95.00
30889;DHT22;51092;50.874;7.024;2024-02-23T00:41:47;6.40;95.10
30889;DHT22;51092;50.874;7.024;2024-02-23T00:42:48;6.40;94.90
30889;DHT22;51092;50.874;7.024;2024-02-23T00:43:52;6.40;95.30
30889;DHT22;51092;50.874;7.024;2024-02-23T00:44:53;6.40;95.20
30889;DHT22;51092;50.874;7.024;2024-02-23T00:45:55;6.40;94.90
30889;DHT22;51092;50.874;7.024;2024-02-23T00:46:56;6.40;94.90
30889;DHT22;51092;50.874;7.024;2024-02-23T00:48:01;6.30;95.20
30889;DHT22;51092;50.874;7.024;2024-02-23T00:49:04;6.30;95.20
30889;DHT22;51092;50.874;7.024;2024-02-23T00:50:08;6.30;95.10
30889;DHT22;51092;50.874;7.024;2024-02-23T00:51:11;6.30;95.00
30889;DHT22;51092;50.874;7.024;2024-02-23T00:52:14;6.30;95.20
30889;DHT22;51092;50.874;7.024;2024-02-23T00:53:16;6.30;95.20
30889;DHT22;51092;50.874;7.024;2024-02-23T00:54:18;6.30;95.10
30889;DHT22;51092;50.874;7.024;2024-02-23T00:55:21;6.30;94.90
30889;DHT22;51092;50.874;7.024;2024-02-23T00:56:23;6.40;94.70
30889;DHT22;51092;50.874;7.024;2024-02-23T00:57:25;6.30;94.60
30889;DHT22;51092;50.874;7.024;2024-02-23T00:58:30;6.30;94.70
30889;DHT22;51092;50.874;7.024;2024-02-23T00:59:32;6.30;94.90
30889;DHT22;51092;50.874;7.024;2024-02-23T01:00:34;6.30;94.70
30889;DHT22;51092;50.874;7.024;2024-02-23T01:01:36;6.30;94.60
30889;DHT22;51092;50.874;7.024;2024-02-23T01:02:37;6.30;94.70
30889;DHT22;51092;50.874;7.024;2024-02-23T01:03:41;6.30;94.70
30889;DHT22;51092;50.874;7.024;2024-02-23T01:04:42;6.20;94.80
30889;DHT22;51092;50.874;7.024;2024-02-23T01:05:45;6.20;94.60
30889;DHT22;51092;50.874;7.024;2024-02-23T01:06:49;6.30;94.50
30889;DHT22;51092;50.874;7.024;2024-02-23T01:07:53;6.20;94.90
30889;DHT22;51092;50.874;7.024;2024-02-23T01:08:54;6.20;94.90
30889;DHT22;51092;50.874;7.024;2024-02-23T01:09:56;6.20;95.00
30889;DHT22;51092;50.874;7.024;2024-02-23T01:11:00;6.20;94.80
30889;DHT22;51092;50.874;7.024;2024-02-23T01:12:03;6.10;94.70
30889;DHT22;51092;50.874;7.024;2024-02-23T01:13:04;6.20;94.70
30889;DHT22;51092;50.874;7.024;2024-02-23T01:14:07;6.10;95.10
30889;DHT22;51092;50.874;7.024;2024-02-23T01:15:09;6.10;95.20
30889;DHT22;51092;50.874;7.024;2024-02-23T01:16:11;6.10;94.90
30889;DHT22;51092;50.874;7.024;2024-02-23T01:17:13;6.10;95.10
30889;DHT22;51092;50.874;7.024;2024-02-23T01:18:17;6.10;95.00
30889;DHT22;51092;50.874;7.024;2024-02-23T01:19:18;6.10;94.80
30889;DHT22;51092;50.874;7.024;2024-02-23T01:20:20;6.10;94.80
30889;DHT22;51092;50.874;7.024;2024-02-23T01:21:21;6.10;94.60
30889;DHT22;51092;50.874;7.024;2024-02-23T01:22:25;6.10;94.40
30889;DHT22;51092;50.874;7.024;2024-02-23T01:23:26;6.00;94.50
30889;DHT22;51092;50.874;7.024;2024-02-23T01:24:28;6.10;94.40
30889;DHT22;51092;50.874;7.024;2024-02-23T01:25:30;6.00;94.60
30889;DHT22;51092;50.874;7.024;2024-02-23T01:26:36;6.00;94.50
30889;DHT22;51092;50.874;7.024;2024-02-23T01:27:38;6.00;94.20
30889;DHT22;51092;50.874;7.024;2024-02-23T01:28:41;6.10;94.00
30889;DHT22;51092;50.874;7.024;2024-02-23T01:29:41;6.10;94.00
30889;DHT22;51092;50.874;7.024;2024-02-23T01:30:43;6.10;94.00
30889;DHT22;51092;50.874;7.024;2024-02-23T01:31:44;6.00;94.30
30889;DHT22;51092;50.874;7.024;2024-02-23T01:32:46;6.00;94.20
30889;DHT22;51092;50.874;7.024;2024-02-23T01:33:48;6.10;93.80
30889;DHT22;51092;50.874;7.024;2024-02-23T01:34:50;6.10;93.70
30889;DHT22;51092;50.874;7.024;2024-02-23T01:35:52;6.10;93.70
30889;DHT22;51092;50.874;7.024;2024-02-23T01:36:53;6.10;93.70
30889;DHT22;51092;50.874;7.024;2024-02-23T01:37:57;6.10;93.40
30889;DHT22;51092;50.874;7.024;2024-02-23T01:38:59;6.10;93.40
30889;DHT22;51092;50.874;7.024;2024-02-23T01:40:02;6.10;93.50
30889;DHT22;51092;50.874;7.024;2024-02-23T01:41:04;6.10;93.60
30889;DHT22;51092;50.874;7.024;2024-02-23T01:42:08;6.10;93.60
30889;DHT22;51092;50.874;7.024;2024-02-23T01:43:10;6.10;93.70
30889;DHT22;51092;50.874;7.024;2024-02-23T01:44:12;6.10;93.60
30889;DHT22;51092;50.874;7.024;2024-02-23T01:45:14;6.10;93.50
30889;DHT22;51092;50.874;7.024;2024-02-23T01:46:17;6.00;94.10
30889;DHT22;51092;50.874;7.024;2024-02-23T01:47:19;6.10;93.90
30889;DHT22;51092;50.874;7.024;2024-02-23T01:48:20;6.10;93.90
30889;DHT22;51092;50.874;7.024;2024-02-23T01:49:23;6.10;93.70
30889;DHT22;51092;50.874;7.024;2024-02-23T01:50:30;6.10;93.70
30889;DHT22;51092;50.874;7.024;2024-02-23T01:51:32;6.00;94.10
30889;DHT22;51092;50.874;7.024;2024-02-23T01:52:35;6.10;93.70
30889;DHT22;51092;50.874;7.024;2024-02-23T01:53:39;6.10;93.60
30889;DHT22;51092;50.874;7.024;2024-02-23T01:54:41;6.10;93.80
30889;DHT22;51092;50.874;7.024;2024-02-23T01:55:45;6.10;93.70
30889;DHT22;51092;50.874;7.024;2024-02-23T01:56:48;6.10;93.80
30889;DHT22;51092;50.874;7.024;2024-02-23T01:57:50;6.10;93.80
30889;DHT22;51092;50.874;7.024;2024-02-23T01:58:52;6.00;94.30
30889;DHT22;51092;50.874;7.024;2024-02-23T01:59:55;5.90;94.60
30889;DHT22;51092;50.874;7.024;2024-02-23T02:00:57;5.90;94.70
30889;DHT22;51092;50.874;7.024;2024-02-23T02:01:59;5.90;94.90
30889;DHT22;51092;50.874;7.024;2024-02-23T02:03:01;5.90;95.00
30889;DHT22;51092;50.874;7.024;2024-02-23T02:04:04;5.90;95.00
30889;DHT22;51092;50.874;7.024;2024-02-23T02:05:06;5.90;95.00
30889;DHT22;51092;50.874;7.024;2024-02-23T02:06:09;5.80;95.20
30889;DHT22;51092;50.874;7.024;2024-02-23T02:07:11;5.80;95.00
30889;DHT22;51092;50.874;7.024;2024-02-23T02:08:13;5.80;95.00
30889;DHT22;51092;50.874;7.024;2024-02-23T02:09:16;5.80;94.90
30889;DHT22;51092;50.874;7.024;2024-02-23T02:10:18;5.80;95.10
30889;DHT22;51092;50.874;7.024;2024-02-23T02:11:19;5.70;95.40
30889;DHT22;51092;50.874;7.024;2024-02-23T02:12:26;5.80;95.10
30889;DHT22;51092;50.874;7.024;2024-02-23T02:13:28;5.70;95.30
30889;DHT22;51092;50.874;7.024;2024-02-23T02:14:31;5.70;94.80
30889;DHT22;51092;50.874;7.024;2024-02-23T02:15:34;5.80;94.70
30889;DHT22;51092;50.874;7.024;2024-02-23T02:16:36;5.80;94.50
30889;DHT22;51092;50.874;7.024;2024-02-23T02:17:37;5.80;94.20
30889;DHT22;51092;50.874;7.024;2024-02-23T02:18:39;5.80;94.30
30889;DHT22;51092;50.874;7.024;2024-02-23T02:19:46;5.80;94.00
30889;DHT22;51092;50.874;7.024;2024-02-23T02:20:51;5.90;93.70
30889;DHT22;51092;50.874;7.024;2024-02-23T02:21:53;5.90;93.40
30889;DHT22;51092;50.874;7.024;2024-02-23T02:22:56;5.90;93.10
30889;DHT22;51092;50.874;7.024;2024-02-23T02:23:57;6.00;92.60
30889;DHT22;51092;50.874;7.024;2024-02-23T02:25:01;6.00;92.50
30889;DHT22;51092;50.874;7.024;2024-02-23T02:26:02;6.00;92.70
30889;DHT22;51092;50.874;7.024;2024-02-23T02:27:05;5.90;92.80
30889;DHT22;51092;50.874;7.024;2024-02-23T02:28:07;6.00;92.60
30889;DHT22;51092;50.874;7.024;2024-02-23T02:29:10;6.00;92.20
30889;DHT22;51092;50.874;7.024;2024-02-23T02:30:14;6.00;92.40
30889;DHT22;51092;50.874;7.024;2024-02-23T02:31:16;6.00;92.60
30889;DHT22;51092;50.874;7.024;2024-02-23T02:32:18;5.90;92.80
30889;DHT22;51092;50.874;7.024;2024-02-23T02:33:21;5.80;93.20
30889;DHT22;51092;50.874;7.024;2024-02-23T02:34:23;5.80;93.10
30889;DHT22;51092;50.874;7.024;2024-02-23T02:35:26;5.80;93.30
30889;DHT22;51092;50.874;7.024;2024-02-23T02:36:27;5.80;93.30
30889;DHT22;51092;50.874;7.024;2024-02-23T02:37:29;5.80;93.50
30889;DHT22;51092;50.874;7.024;2024-02-23T02:38:30;5.80;93.60
30889;DHT22;51092;50.874;7.024;2024-02-23T02:39:34;5.70;93.80
30889;DHT22;51092;50.874;7.024;2024-02-23T02:40:36;5.80;93.50
30889;DHT22;51092;50.874;7.024;2024-02-23T02:41:39;5.80;93.30
30889;DHT22;51092;50.874;7.024;2024-02-23T02:42:40;5.80;93.40
30889;DHT22;51092;50.874;7.024;2024-02-23T02:43:43;5.70;93.60
30889;DHT22;51092;50.874;7.024;2024-02-23T02:44:44;5.80;93.20
30889;DHT22;51092;50.874;7.024;2024-02-23T02:45:46;5.70;93.40
30889;DHT22;51092;50.874;7.024;2024-02-23T02:46:47;5.70;93.40
30889;DHT22;51092;50.874;7.024;2024-02-23T02:47:50;5.80;93.10
30889;DHT22;51092;50.874;7.024;2024-02-23T02:48:52;5.80;93.20
30889;DHT22;51092;50.874;7.024;2024-02-23T02:49:54;5.70;93.30
30889;DHT22;51092;50.874;7.024;2024-02-23T02:50:55;5.70;93.30
30889;DHT22;51092;50.874;7.024;2024-02-23T02:51:57;5.70;93.30
30889;DHT22;51092;50.874;7.024;2024-02-23T02:52:58;5.70;93.40
30889;DHT22;51092;50.874;7.024;2024-02-23T02:54:01;5.80;93.20
30889;DHT22;51092;50.874;7.024;2024-02-23T02:55:03;5.70;93.10
30889;DHT22;51092;50.874;7.024;2024-02-23T02:56:07;5.80;92.90
30889;DHT22;51092;50.874;7.024;2024-02-23T02:57:08;5.70;92.70
30889;DHT22;51092;50.874;7.024;2024-02-23T02:58:11;5.80;92.70
30889;DHT22;51092;50.874;7.024;2024-02-23T02:59:13;5.80;92.70
30889;DHT22;51092;50.874;7.024;2024-02-23T03:00:16;5.80;92.00
30889;DHT22;51092;50.874;7.024;2024-02-23T03:01:17;5.90;92.10
30889;DHT22;51092;50.874;7.024;2024-02-23T03:02:20;5.80;92.20
30889;DHT22;51092;50.874;7.024;2024-02-23T03:03:22;5.80;92.40
30889;DHT22;51092;50.874;7.024;2024-02-23T03:04:25;5.80;92.40
30889;DHT22;51092;50.874;7.024;2024-02-23T03:05:26;5.80;92.40
30889;DHT22;51092;50.874;7.024;2024-02-23T03:06:28;5.70;92.50
30889;DHT22;51092;50.874;7.024;2024-02-23T03:07:29;5.80;92.20
30889;DHT22;51092;50.874;7.024;2024-02-23T03:08:34;5.80;92.20
30889;DHT22;51092;50.874;7.024;2024-02-23T03:09:36;5.80;91.90
30889;DHT22;51092;50.874;7.024;2024-02-23T03:10:38;5.80;92.20
30889;DHT22;51092;50.874;7.024;2024-02-23T03:11:41;5.80;92.00
30889;DHT22;51092;50.874;7.024;2024-02-23T03:12:43;5.80;91.90
30889;DHT22;51092;50.874;7.024;2024-02-23T03:13:45;5.80;91.90
30889;DHT22;51092;50.874;7.024;2024-02-23T03:14:48;5.80;92.10
30889;DHT22;51092;50.874;7.024;2024-02-23T03:15:51;5.80;91.90
30889;DHT22;51092;50.874;7.024;2024-02-23T03:16:53;5.80;91.90
30889;DHT22;51092;50.874;7.024;2024-02-23T03:17:57;5.70;92.10
30889;DHT22;51092;50.874;7.024;2024-02-23T03:19:01;5.80;91.90
30889;DHT22;51092;50.874;7.024;2024-02-23T03:20:03;5.80;91.50
30889;DHT22;51092;50.874;7.024;2024-02-23T03:21:09;5.80;91.70
30889;DHT22;51092;50.874;7.024;2024-02-23T03:22:11;5.80;91.40
30889;DHT22;51092;50.874;7.024;2024-02-23T03:23:13;5.80;91.60
30889;DHT22;51092;50.874;7.024;2024-02-23T03:24:15;5.70;92.00
30889;DHT22;51092;50.874;7.024;2024-02-23T03:25:18;5.80;91.80
30889;DHT22;51092;50.874;7.024;2024-02-23T03:26:20;5.80;91.80
30889;DHT22;51092;50.874;7.024;2024-02-23T03:27:28;5.80;91.70
30889;DHT22;51092;50.874;7.024;2024-02-23T03:28:29;5.80;91.70
30889;DHT22;51092;50.874;7.024;2024-02-23T03:29:31;5.80;91.70
30889;DHT22;51092;50.874;7.024;2024-02-23T03:30:33;5.80;92.00
30889;DHT22;51092;50.874;7.024;2024-02-23T03:31:35;5.70;92.20
30889;DHT22;51092;50.874;7.024;2024-02-23T03:32:37;5.70;92.60
30889;DHT22;51092;50.874;7.024;2024-02-23T03:33:40;5.70;92.40
30889;DHT22;51092;50.874;7.024;2024-02-23T03:34:41;5.70;92.30
30889;DHT22;51092;50.874;7.024;2024-02-23T03:35:44;5.80;92.10
30889;DHT22;51092;50.874;7.024;2024-02-23T03:36:46;5.70;92.40
30889;DHT22;51092;50.874;7.024;2024-02-23T03:37:47;5.70;92.40
30889;DHT22;51092;50.874;7.024;2024-02-23T03:38:49;5.70;92.60
30889;DHT22;51092;50.874;7.024;2024-02-23T03:39:50;5.60;92.70
30889;DHT22;51092;50.874;7.024;2024-02-23T03:40:52;5.70;92.70
30889;DHT22;51092;50.874;7.024;2024-02-23T03:41:55;5.60;92.50
30889;DHT22;51092;50.874;7.024;2024-02-23T03:42:58;5.70;92.50
30889;DHT22;51092;50.874;7.024;2024-02-23T03:44:00;5.60;92.40
30889;DHT22;51092;50.874;7.024;2024-02-23T03:45:02;5.70;92.30
30889;DHT22;51092;50.874;7.024;2024-02-23T03:46:06;5.60;92.30
30889;DHT22;51092;50.874;7.024;2024-02-23T03:47:07;5.60;92.40
30889;DHT22;51092;50.874;7.024;2024-02-23T03:48:09;5.50;92.60
30889;DHT22;51092;50.874;7.024;2024-02-23T03:49:13;5.50;92.50
30889;DHT22;51092;50.874;7.024;2024-02-23T03:50:15;5.50;92.40
30889;DHT22;51092;50.874;7.024;2024-02-23T03:51:17;5.50;92.40
30889;DHT22;51092;50.874;7.024;2024-02-23T03:52:19;5.50;92.50
30889;DHT22;51092;50.874;7.024;2024-02-23T03:53:21;5.50;92.70
30889;DHT22;51092;50.874;7.024;2024-02-23T03:54:24;5.50;92.80
30889;DHT22;51092;50.874;7.024;2024-02-23T03:55:25;5.50;92.80
30889;DHT22;51092;50.874;7.024;2024-02-23T03:56:27;5.50;92.70
30889;DHT22;51092;50.874;7.024;2024-02-23T03:57:27;5.50;92.80
30889;DHT22;51092;50.874;7.024;2024-02-23T03:58:32;5.50;92.80
30889;DHT22;51092;50.874;7.024;2024-02-23T03:59:35;5.50;92.70
30889;DHT22;51092;50.874;7.024;2024-02-23T04:00:38;5.50;92.50
30889;DHT22;51092;50.874;7.024;2024-02-23T04:01:40;5.60;92.20
30889;DHT22;51092;50.874;7.024;2024-02-23T04:02:42;5.50;92.40
30889;DHT22;51092;50.874;7.024;2024-02-23T04:03:43;5.60;92.20
30889;DHT22;51092;50.874;7.024;2024-02-23T04:04:44;5.50;92.50
30889;DHT22;51092;50.874;7.024;2024-02-23T04:05:46;5.60;92.20
30889;DHT22;51092;50.874;7.024;2024-02-23T04:06:47;5.60;92.20
30889;DHT22;51092;50.874;7.024;2024-02-23T04:07:50;5.60;92.20
30889;DHT22;51092;50.874;7.024;2024-02-23T04:08:52;5.70;92.30
30889;DHT22;51092;50.874;7.024;2024-02-23T04:09:54;5.60;92.10
30889;DHT22;51092;50.874;7.024;2024-02-23T04:10:56;5.50;92.50
30889;DHT22;51092;50.874;7.024;2024-02-23T04:11:59;5.60;92.40
30889;DHT22;51092;50.874;7.024;2024-02-23T04:13:00;5.60;92.30
30889;DHT22;51092;50.874;7.024;2024-02-23T04:14:04;5.60;92.60
30889;DHT22;51092;50.874;7.024;2024-02-23T04:15:06;5.60;92.60
30889;DHT22;51092;50.874;7.024;2024-02-23T04:16:08;5.60;92.60
30889;DHT22;51092;50.874;7.024;2024-02-23T04:17:09;5.60;92.90
30889;DHT22;51092;50.874;7.024;2024-02-23T04:18:12;5.60;92.40
30889;DHT22;51092;50.874;7.024;2024-02-23T04:19:14;5.50;92.70
30889;DHT22;51092;50.874;7.024;2024-02-23T04:20:16;5.60;92.60
30889;DHT22;51092;50.874;7.024;2024-02-23T04:21:18;5.60;92.50
30889;DHT22;51092;50.874;7.024;2024-02-23T04:22:20;5.50;92.70
30889;DHT22;51092;50.874;7.024;2024-02-23T04:23:22;5.50;92.80
30889;DHT22;51092;50.874;7.024;2024-02-23T04:24:24;5.50;92.70
30889;DHT22;51092;50.874;7.024;2024-02-23T04:25:26;5.50;92.70
30889;DHT22;51092;50.874;7.024;2024-02-23T04:26:29;5.50;92.80
30889;DHT22;51092;50.874;7.024;2024-02-23T04:27:30;5.50;92.70
30889;DHT22;51092;50.874;7.024;2024-02-23T04:28:33;5.50;92.70
30889;DHT22;51092;50.874;7.024;2024-02-23T04:29:36;5.60;92.30
30889;DHT22;51092;50.874;7.024;2024-02-23T04:30:39;5.60;92.30
30889;DHT22;51092;50.874;7.024;2024-02-23T04:31:40;5.70;92.10
30889;DHT22;51092;50.874;7.024;2024-02-23T04:32:42;5.60;92.30
30889;DHT22;51092;50.874;7.024;2024-02-23T04:33:43;5.50;92.40
30889;DHT22;51092;50.874;7.024;2024-02-23T04:34:45;5.50;92.50
30889;DHT22;51092;50.874;7.024;2024-02-23T04:35:46;5.40;92.70
30889;DHT22;51092;50.874;7.024;2024-02-23T04:36:50;5.40;92.80
30889;DHT22;51092;50.874;7.024;2024-02-23T04:37:52;5.50;92.90
30889;DHT22;51092;50.874;7.024;2024-02-23T04:38:54;5.50;92.50
30889;DHT22;51092;50.874;7.024;2024-02-23T04:39:56;5.60;92.40
30889;DHT22;51092;50.874;7.024;2024-02-23T04:40:57;5.60;92.10
30889;DHT22;51092;50.874;7.024;2024-02-23T04:41:59;5.50;92.30
30889;DHT22;51092;50.874;7.024;2024-02-23T04:43:00;5.40;92.50
30889;DHT22;51092;50.874;7.024;2024-02-23T04:44:04;5.40;92.80
30889;DHT22;51092;50.874;7.024;2024-02-23T04:45:08;5.50;92.60
30889;DHT22;51092;50.874;7.024;2024-02-23T04:46:10;5.60;92.50
30889;DHT22;51092;50.874;7.024;2024-02-23T04:47:13;5.80;92.30
30889;DHT22;51092;50.874;7.024;2024-02-23T04:48:16;6.10;91.50
30889;DHT22;51092;50.874;7.024;2024-02-23T04:49:18;5.90;91.00
30889;DHT22;51092;50.874;7.024;2024-02-23T04:50:20;5.90;91.10
30889;DHT22;51092;50.874;7.024;2024-02-23T04:51:22;5.70;91.10
30889;DHT22;51092;50.874;7.024;2024-02-23T04:52:25;5.60;91.80
30889;DHT22;51092;50.874;7.024;2024-02-23T04:53:26;5.80;91.80
30889;DHT22;51092;50.874;7.024;2024-02-23T04:54:29;5.50;91.90
30889;DHT22;51092;50.874;7.024;2024-02-23T04:55:31;5.40;92.40
30889;DHT22;51092;50.874;7.024;2024-02-23T04:56:36;5.50;92.80
30889;DHT22;51092;50.874;7.024;2024-02-23T04:57:45;5.60;92.80
30889;DHT22;51092;50.874;7.024;2024-02-23T04:59:25;5.70;93.30
30889;DHT22;51092;50.874;7.024;2024-02-23T05:00:38;5.80;92.70
30889;DHT22;51092;50.874;7.024;2024-02-23T05:01:40;5.80;92.50
30889;DHT22;51092;50.874;7.024;2024-02-23T05:02:42;5.60;92.60
30889;DHT22;51092;50.874;7.024;2024-02-23T05:03:43;5.50;92.90
30889;DHT22;51092;50.874;7.024;2024-02-23T05:04:45;5.50;92.80
30889;DHT22;51092;50.874;7.024;2024-02-23T05:05:47;5.50;92.90
30889;DHT22;51092;50.874;7.024;2024-02-23T05:06:54;5.60;92.90
30889;DHT22;51092;50.874;7.024;2024-02-23T05:07:55;5.60;92.90
30889;DHT22;51092;50.874;7.024;2024-02-23T05:08:57;5.60;92.80
30889;DHT22;51092;50.874;7.024;2024-02-23T05:09:58;5.70;92.90
30889;DHT22;51092;50.874;7.024;2024-02-23T05:11:02;5.70;92.70
30889;DHT22;51092;50.874;7.024;2024-02-23T05:12:08;5.80;92.50
30889;DHT22;51092;50.874;7.024;2024-02-23T05:13:14;5.70;92.70
30889;DHT22;51092;50.874;7.024;2024-02-23T05:14:20;5.70;92.80
30889;DHT22;51092;50.874;7.024;2024-02-23T05:15:23;5.80;92.80
30889;DHT22;51092;50.874;7.024;2024-02-23T05:16:28;5.70;92.90
30889;DHT22;51092;50.874;7.024;2024-02-23T05:17:31;5.60;93.00
30889;DHT22;51092;50.874;7.024;2024-02-23T05:18:37;5.60;93.10
30889;DHT22;51092;50.874;7.024;2024-02-23T05:19:41;5.60;93.00
30889;DHT22;51092;50.874;7.024;2024-02-23T05:20:44;5.50;93.20
30889;DHT22;51092;50.874;7.024;2024-02-23T05:21:45;5.60;93.20
30889;DHT22;51092;50.874;7.024;2024-02-23T05:22:47;5.50;93.00
30889;DHT22;51092;50.874;7.024;2024-02-23T05:42:11;5.10;94.50
30889;DHT22;51092;50.874;7.024;2024-02-23T05:43:14;5.10;94.80
30889;DHT22;51092;50.874;7.024;2024-02-23T05:44:18;5.10;94.60
30889;DHT22;51092;50.874;7.024;2024-02-23T05:45:22;5.20;94.50
30889;DHT22;51092;50.874;7.024;2024-02-23T05:46:26;5.20;94.20
30889;DHT22;51092;50.874;7.024;2024-02-23T05:47:29;5.10;94.20
30889;DHT22;51092;50.874;7.024;2024-02-23T05:48:33;5.20;94.60
30889;DHT22;51092;50.874;7.024;2024-02-23T05:49:37;5.20;94.40
30889;DHT22;51092;50.874;7.024;2024-02-23T05:50:43;5.20;94.40
30889;DHT22;51092;50.874;7.024;2024-02-23T05:51:46;5.40;94.20
30889;DHT22;51092;50.874;7.024;2024-02-23T05:52:49;5.40;93.80
30889;DHT22;51092;50.874;7.024;2024-02-23T05:54:06;5.40;93.40
30889;DHT22;51092;50.874;7.024;2024-02-23T05:58:19;5.40;93.60
30889;DHT22;51092;50.874;7.024;2024-02-23T05:59:25;5.50;93.00
30889;DHT22;51092;50.874;7.024;2024-02-23T06:00:59;5.50;92.90
30889;DHT22;51092;50.874;7.024;2024-02-23T06:02:01;5.40;93.00
30889;DHT22;51092;50.874;7.024;2024-02-23T06:03:03;5.30;93.20
30889;DHT22;51092;50.874;7.024;2024-02-23T06:04:05;5.30;93.40
30889;DHT22;51092;50.874;7.024;2024-02-23T06:05:08;5.30;93.20
30889;DHT22;51092;50.874;7.024;2024-02-23T06:06:09;5.40;93.00
30889;DHT22;51092;50.874;7.024;2024-02-23T06:07:12;5.20;93.00
30889;DHT22;51092;50.874;7.024;2024-02-23T06:08:13;5.20;93.10
30889;DHT22;51092;50.874;7.024;2024-02-23T06:09:15;5.10;93.50
30889;DHT22;51092;50.874;7.024;2024-02-23T06:10:16;5.20;93.50
30889;DHT22;51092;50.874;7.024;2024-02-23T06:11:19;5.20;93.40
30889;DHT22;51092;50.874;7.024;2024-02-23T06:12:20;5.00;93.50
30889;DHT22;51092;50.874;7.024;2024-02-23T06:13:24;5.10;93.80
30889;DHT22;51092;50.874;7.024;2024-02-23T06:14:26;5.00;93.90
30889;DHT22;51092;50.874;7.024;2024-02-23T06:15:28;4.90;94.20
30889;DHT22;51092;50.874;7.024;2024-02-23T06:16:29;4.90;94.30
30889;DHT22;51092;50.874;7.024;2024-02-23T06:17:32;4.90;94.30
30889;DHT22;51092;50.874;7.024;2024-02-23T06:18:32;4.90;94.30
30889;DHT22;51092;50.874;7.024;2024-02-23T06:19:35;4.90;94.40
30889;DHT22;51092;50.874;7.024;2024-02-23T06:20:37;5.00;94.50
30889;DHT22;51092;50.874;7.024;2024-02-23T06:21:39;5.10;94.30
30889;DHT22;51092;50.874;7.024;2024-02-23T06:22:42;5.10;94.00
30889;DHT22;51092;50.874;7.024;2024-02-23T06:23:43;5.10;94.20
30889;DHT22;51092;50.874;7.024;2024-02-23T06:24:46;5.20;93.90
30889;DHT22;51092;50.874;7.024;2024-02-23T06:25:47;5.20;93.70
30889;DHT22;51092;50.874;7.024;2024-02-23T06:26:49;5.00;93.90
30889;DHT22;51092;50.874;7.024;2024-02-23T06:27:50;5.20;93.90
30889;DHT22;51092;50.874;7.024;2024-02-23T06:28:54;5.10;93.70
30889;DHT22;51092;50.874;7.024;2024-02-23T06:29:55;5.00;94.00
30889;DHT22;51092;50.874;7.024;2024-02-23T06:30:57;4.90;94.30
30889;DHT22;51092;50.874;7.024;2024-02-23T06:31:58;4.80;94.70
30889;DHT22;51092;50.874;7.024;2024-02-23T06:33:02;4.80;94.80
30889;DHT22;51092;50.874;7.024;2024-02-23T06:34:05;4.90;94.90
30889;DHT22;51092;50.874;7.024;2024-02-23T06:35:08;4.90;94.80
30889;DHT22;51092;50.874;7.024;2024-02-23T06:36:12;4.90;94.80
30889;DHT22;51092;50.874;7.024;2024-02-23T06:37:15;5.00;94.70
30889;DHT22;51092;50.874;7.024;2024-02-23T06:38:17;5.00;94.60
30889;DHT22;51092;50.874;7.024;2024-02-23T06:39:19;4.90;94.90
30889;DHT22;51092;50.874;7.024;2024-02-23T06:40:21;5.10;94.80
30889;DHT22;51092;50.874;7.024;2024-02-23T06:41:23;5.10;94.70
30889;DHT22;51092;50.874;7.024;2024-02-23T06:42:24;5.10;94.30
30889;DHT22;51092;50.874;7.024;2024-02-23T06:43:26;5.10;94.20
30889;DHT22;51092;50.874;7.024;2024-02-23T06:44:28;5.20;94.10
30889;DHT22;51092;50.874;7.024;2024-02-23T06:45:31;5.20;93.90
30889;DHT22;51092;50.874;7.024;2024-02-23T06:46:33;5.30;93.90
30889;DHT22;51092;50.874;7.024;2024-02-23T06:47:35;5.20;93.80
30889;DHT22;51092;50.874;7.024;2024-02-23T06:48:37;5.30;93.90
30889;DHT22;51092;50.874;7.024;2024-02-23T06:49:41;5.50;93.60
30889;DHT22;51092;50.874;7.024;2024-02-23T06:50:43;5.50;93.30
30889;DHT22;51092;50.874;7.024;2024-02-23T06:51:45;5.40;93.20
30889;DHT22;51092;50.874;7.024;2024-02-23T06:52:46;5.50;93.30
30889;DHT22;51092;50.874;7.024;2024-02-23T06:53:50;5.40;93.40
30889;DHT22;51092;50.874;7.024;2024-02-23T06:54:52;5.50;93.10
30889;DHT22;51092;50.874;7.024;2024-02-23T06:55:57;5.50;93.10
30889;DHT22;51092;50.874;7.024;2024-02-23T06:56:59;5.60;92.90
30889;DHT22;51092;50.874;7.024;2024-02-23T06:58:01;5.50;93.00
30889;DHT22;51092;50.874;7.024;2024-02-23T06:59:03;5.40;93.20
30889;DHT22;51092;50.874;7.024;2024-02-23T07:00:08;5.40;93.60
30889;DHT22;51092;50.874;7.024;2024-02-23T07:01:10;5.40;93.60
30889;DHT22;51092;50.874;7.024;2024-02-23T07:02:14;5.50;93.70
30889;DHT22;51092;50.874;7.024;2024-02-23T07:03:15;5.50;93.60